Time;durP1;ratioP1;P1;durP2;ratioP2;P2;SDS_P1;SDS_P2;PMS_P1;PMS_P2;Temp;Humidity;BMP_temperature;BMP_pressure;BME280_temperature;BME280_humidity;BME280_pressure;Samples;Min_cycle;Max_cycle;Signal;HPM_P1;HPM_P2
2022/09/23 00:01:17;;;;;;;263.40;124.17;;;;;;;;;;5050054;28;20264;-53
2022/09/23 00:03:44;;;;;;;269.07;125.20;;;;;;;;;;5050068;28;20179;-52
2022/09/23 00:06:11;;;;;;;295.40;135.13;;;;;;;;;;5026693;28;20215;-53
2022/09/23 00:08:37;;;;;;;298.80;135.73;;;;;;;;;;5019816;28;20760;-55
2022/09/23 00:11:05;;;;;;;363.23;165.03;;;;;;;;;;5015593;28;20222;-53
2022/09/23 00:13:31;;;;;;;330.80;150.43;;;;;;;;;;5022285;28;20623;-53
2022/09/23 00:15:57;;;;;;;333.93;149.23;;;;;;;;;;5018390;28;20212;-53
2022/09/23 00:18:23;;;;;;;284.70;131.50;;;;;;;;;;5015422;28;20407;-53
2022/09/23 00:20:48;;;;;;;366.80;157.37;;;;;;;;;;5020683;28;20289;-53
2022/09/23 00:23:14;;;;;;;378.10;162.23;;;;;;;;;;5015812;28;20186;-53
2022/09/23 00:25:40;;;;;;;449.03;193.50;;;;;;;;;;5017667;28;20270;-53
2022/09/23 00:28:06;;;;;;;383.70;166.07;;;;;;;;;;5026665;28;20554;-53
2022/09/23 00:30:32;;;;;;;366.20;157.83;;;;;;;;;;5023926;28;20299;-53
2022/09/23 00:32:59;;;;;;;393.40;172.43;;;;;;;;;;5032126;28;20304;-53
2022/09/23 00:35:25;;;;;;;426.60;187.00;;;;;;;;;;5022254;28;20203;-53
2022/09/23 00:37:51;;;;;;;436.17;190.23;;;;;;;;;;5015391;28;20180;-53
2022/09/23 00:40:17;;;;;;;354.63;154.93;;;;;;;;;;5024618;28;20184;-53
2022/09/23 00:42:47;;;;;;;355.80;154.90;;;;;;;;;;5027881;28;20188;-53
2022/09/23 00:45:13;;;;;;;438.67;194.87;;;;;;;;;;5008497;28;20217;-53
2022/09/23 00:47:44;;;;;;;359.77;154.03;;;;;;;;;;5026139;28;20660;-53
2022/09/23 00:50:30;;;;;;;383.03;168.93;;;;;;;;;;5023670;28;20200;-54
2022/09/23 00:52:58;;;;;;;418.57;176.33;;;;;;;;;;5014201;28;21403;-53
2022/09/23 00:55:27;;;;;;;469.90;201.40;;;;;;;;;;5015619;28;20278;-53
2022/09/23 00:57:55;;;;;;;356.93;157.23;;;;;;;;;;5015892;28;20191;-53
2022/09/23 01:00:21;;;;;;;405.33;174.43;;;;;;;;;;5010264;28;20711;-53
2022/09/23 01:02:47;;;;;;;414.90;180.97;;;;;;;;;;5016843;28;20238;-53
2022/09/23 01:05:13;;;;;;;412.77;176.70;;;;;;;;;;5011464;28;20677;-53
2022/09/23 01:07:39;;;;;;;404.47;174.27;;;;;;;;;;5008862;28;20177;-53
2022/09/23 01:10:06;;;;;;;332.57;142.40;;;;;;;;;;5025952;28;20187;-53
2022/09/23 01:12:51;;;;;;;369.73;158.13;;;;;;;;;;5024117;28;20242;-53
2022/09/23 01:15:19;;;;;;;369.43;157.17;;;;;;;;;;5013225;28;20216;-53
2022/09/23 01:17:51;;;;;;;399.97;172.90;;;;;;;;;;5020991;28;20707;-53
2022/09/23 01:20:31;;;;;;;346.93;150.27;;;;;;;;;;5019734;28;20195;-54
2022/09/23 01:23:02;;;;;;;394.80;168.10;;;;;;;;;;5012169;28;20215;-53
2022/09/23 01:25:39;;;;;;;391.77;170.97;;;;;;;;;;5013927;28;20310;-53
2022/09/23 01:28:17;;;;;;;328.03;143.93;;;;;;;;;;5019529;28;20261;-53
2022/09/23 01:31:02;;;;;;;339.90;149.80;;;;;;;;;;5025219;28;20187;-53
2022/09/23 01:34:03;;;;;;;396.53;175.97;;;;;;;;;;5017710;28;20575;-53
2022/09/23 01:36:35;;;;;;;327.73;145.73;;;;;;;;;;5005471;28;20258;-53
2022/09/23 01:39:04;;;;;;;315.50;138.53;;;;;;;;;;5012045;28;20196;-53
2022/09/23 01:41:46;;;;;;;329.17;146.27;;;;;;;;;;5024898;28;20547;-53
2022/09/23 01:44:22;;;;;;;365.10;162.70;;;;;;;;;;5018540;28;20199;-53
2022/09/23 01:46:53;;;;;;;314.53;143.03;;;;;;;;;;5018050;28;20207;-53
2022/09/23 01:49:22;;;;;;;358.63;160.03;;;;;;;;;;5014843;28;20211;-53
2022/09/23 01:52:05;;;;;;;339.40;151.63;;;;;;;;;;5012414;28;20187;-53
2022/09/23 01:54:45;;;;;;;323.23;142.13;;;;;;;;;;5021227;28;20211;-53
2022/09/23 01:57:46;;;;;;;314.07;138.40;;;;;;;;;;5027622;28;20671;-53
2022/09/23 02:00:16;;;;;;;354.47;158.17;;;;;;;;;;4989398;28;20185;-53
2022/09/23 02:02:48;;;;;;;431.10;185.57;;;;;;;;;;5000031;28;20310;-53
2022/09/23 02:05:17;;;;;;;312.07;137.53;;;;;;;;;;5016574;28;20202;-53
2022/09/23 02:07:45;;;;;;;329.60;147.10;;;;;;;;;;5019027;28;20215;-53
2022/09/23 02:10:13;;;;;;;318.00;141.23;;;;;;;;;;5029699;28;20184;-53
2022/09/23 02:12:41;;;;;;;374.97;166.33;;;;;;;;;;5029642;28;20757;-53
2022/09/23 02:15:09;;;;;;;354.00;155.00;;;;;;;;;;5027645;28;20282;-53
2022/09/23 02:17:47;;;;;;;371.67;162.13;;;;;;;;;;5019846;28;20755;-53
2022/09/23 02:20:14;;;;;;;350.53;152.27;;;;;;;;;;5018259;28;20183;-53
2022/09/23 02:22:44;;;;;;;333.90;147.03;;;;;;;;;;5013916;28;20653;-53
2022/09/23 02:25:11;;;;;;;350.90;153.73;;;;;;;;;;5028184;28;20697;-53
2022/09/23 02:27:40;;;;;;;317.63;139.17;;;;;;;;;;5030987;28;20176;-53
2022/09/23 02:30:18;;;;;;;373.70;163.50;;;;;;;;;;5013448;28;20275;-54
2022/09/23 02:32:56;;;;;;;336.80;148.07;;;;;;;;;;5029147;28;20460;-53
2022/09/23 02:35:31;;;;;;;332.57;147.13;;;;;;;;;;5016746;28;20263;-53
2022/09/23 02:38:03;;;;;;;367.83;165.57;;;;;;;;;;5022092;28;20559;-53
2022/09/23 02:40:29;;;;;;;382.73;170.23;;;;;;;;;;5018297;28;20195;-54
2022/09/23 02:43:01;;;;;;;390.93;169.23;;;;;;;;;;5032515;28;20188;-53
2022/09/23 02:45:27;;;;;;;379.80;165.63;;;;;;;;;;5016140;28;20215;-53
2022/09/23 02:47:56;;;;;;;355.83;154.47;;;;;;;;;;5025849;28;20188;-53
2022/09/23 02:50:22;;;;;;;414.87;176.00;;;;;;;;;;5024687;28;20172;-53
2022/09/23 02:52:49;;;;;;;394.40;167.17;;;;;;;;;;5016719;28;20175;-53
2022/09/23 02:55:18;;;;;;;332.13;142.00;;;;;;;;;;5026429;28;20223;-51
2022/09/23 02:57:44;;;;;;;369.70;160.97;;;;;;;;;;5032445;28;20193;-51
2022/09/23 03:00:11;;;;;;;354.20;153.87;;;;;;;;;;5024425;28;20200;-51
2022/09/23 03:02:48;;;;;;;377.57;162.53;;;;;;;;;;5019816;28;20180;-51
2022/09/23 03:05:22;;;;;;;327.27;141.97;;;;;;;;;;5027411;28;20196;-51
2022/09/23 03:08:11;;;;;;;352.60;152.93;;;;;;;;;;5038860;28;20183;-52
2022/09/23 03:10:44;;;;;;;328.87;144.77;;;;;;;;;;5037678;28;20182;-51
2022/09/23 03:13:29;;;;;;;363.87;158.97;;;;;;;;;;5031205;28;20206;-52
2022/09/23 03:15:58;;;;;;;345.73;150.17;;;;;;;;;;5024334;28;20210;-52
2022/09/23 03:18:36;;;;;;;352.13;155.03;;;;;;;;;;5026813;28;20738;-53
2022/09/23 03:21:03;;;;;;;339.07;148.00;;;;;;;;;;5023870;28;20536;-52
2022/09/23 03:23:32;;;;;;;349.30;153.03;;;;;;;;;;5026248;28;20646;-52
2022/09/23 03:26:00;;;;;;;338.77;149.53;;;;;;;;;;5021473;28;20218;-53
2022/09/23 03:28:28;;;;;;;332.87;146.70;;;;;;;;;;5027282;28;20394;-52
2022/09/23 03:30:54;;;;;;;370.37;163.27;;;;;;;;;;5029439;28;20641;-52
2022/09/23 03:33:22;;;;;;;344.10;149.83;;;;;;;;;;5022290;28;20184;-51
2022/09/23 03:38:39;;;;;;;317.90;139.67;;;;;;;;;;5038457;28;20206;-52
2022/09/23 03:41:05;;;;;;;278.67;123.93;;;;;;;;;;5039680;28;20318;-52
2022/09/23 03:43:31;;;;;;;299.27;133.00;;;;;;;;;;5030805;28;20184;-52
2022/09/23 03:45:58;;;;;;;321.50;138.83;;;;;;;;;;5034086;28;20218;-52
2022/09/23 03:48:24;;;;;;;362.03;156.60;;;;;;;;;;5028406;28;20192;-52
2022/09/23 03:50:50;;;;;;;357.67;155.97;;;;;;;;;;5028160;28;20209;-53
2022/09/23 03:53:19;;;;;;;351.50;154.87;;;;;;;;;;5034334;28;20183;-51
2022/09/23 03:55:46;;;;;;;454.30;197.83;;;;;;;;;;5025796;28;20203;-52
2022/09/23 03:58:12;;;;;;;353.00;152.93;;;;;;;;;;5035996;28;20176;-52
2022/09/23 04:00:38;;;;;;;332.37;143.87;;;;;;;;;;5032417;28;20719;-51
2022/09/23 04:03:04;;;;;;;410.17;178.03;;;;;;;;;;5028100;28;20192;-52
2022/09/23 04:05:30;;;;;;;377.20;159.90;;;;;;;;;;5027411;28;20216;-53
2022/09/23 04:07:56;;;;;;;359.70;154.20;;;;;;;;;;5036931;28;20183;-52
2022/09/23 04:10:22;;;;;;;352.47;150.83;;;;;;;;;;5035432;28;20240;-52
2022/09/23 04:12:48;;;;;;;330.90;140.33;;;;;;;;;;5032401;28;20198;-53
2022/09/23 04:15:14;;;;;;;368.43;159.57;;;;;;;;;;5028345;28;20581;-52
2022/09/23 04:17:40;;;;;;;394.27;169.27;;;;;;;;;;5023487;28;20218;-52
2022/09/23 04:20:06;;;;;;;377.10;164.07;;;;;;;;;;5022534;28;20219;-51
2022/09/23 04:22:33;;;;;;;359.77;156.10;;;;;;;;;;5025643;28;20625;-53
2022/09/23 04:24:59;;;;;;;377.07;164.63;;;;;;;;;;5035685;28;20430;-53
2022/09/23 04:27:25;;;;;;;338.47;146.17;;;;;;;;;;5035841;28;20584;-52
2022/09/23 04:29:51;;;;;;;349.83;149.30;;;;;;;;;;5024325;28;20188;-53
2022/09/23 04:32:17;;;;;;;313.73;136.37;;;;;;;;;;5031817;28;20183;-52
2022/09/23 04:34:43;;;;;;;384.13;166.97;;;;;;;;;;5026983;28;20208;-52
2022/09/23 04:37:09;;;;;;;343.17;150.33;;;;;;;;;;5036154;28;20195;-52
2022/09/23 04:39:35;;;;;;;324.13;145.37;;;;;;;;;;5031999;28;20180;-52
2022/09/23 04:42:02;;;;;;;333.47;149.23;;;;;;;;;;5032203;28;20176;-52
2022/09/23 04:44:28;;;;;;;336.77;148.73;;;;;;;;;;5027630;28;20196;-52
2022/09/23 04:46:54;;;;;;;378.03;160.30;;;;;;;;;;5027516;28;20206;-52
2022/09/23 04:49:20;;;;;;;364.30;158.73;;;;;;;;;;5022363;28;20234;-52
2022/09/23 04:51:46;;;;;;;379.77;162.37;;;;;;;;;;5026429;28;20218;-52
2022/09/23 04:54:13;;;;;;;366.50;160.67;;;;;;;;;;5029001;28;20197;-52
2022/09/23 04:56:40;;;;;;;350.73;152.87;;;;;;;;;;5032515;28;20188;-51
2022/09/23 04:59:06;;;;;;;311.20;137.40;;;;;;;;;;5028130;28;20237;-52
2022/09/23 05:01:33;;;;;;;356.03;153.03;;;;;;;;;;5029673;28;20188;-52
2022/09/23 05:04:01;;;;;;;375.43;162.97;;;;;;;;;;5020893;28;20284;-52
2022/09/23 05:06:28;;;;;;;362.60;156.63;;;;;;;;;;5032282;28;20207;-52
2022/09/23 05:08:54;;;;;;;297.30;129.70;;;;;;;;;;5038676;28;20187;-53
2022/09/23 05:11:21;;;;;;;272.43;120.63;;;;;;;;;;5038488;28;20180;-53
2022/09/23 05:13:49;;;;;;;275.80;121.77;;;;;;;;;;5034178;28;20677;-53
2022/09/23 05:16:15;;;;;;;278.40;122.00;;;;;;;;;;5033626;28;20207;-53
2022/09/23 05:18:42;;;;;;;298.37;131.20;;;;;;;;;;5048223;28;20193;-52
2022/09/23 05:21:13;;;;;;;296.50;130.47;;;;;;;;;;5037355;28;20270;-53
2022/09/23 05:23:39;;;;;;;286.63;126.03;;;;;;;;;;5043373;28;20694;-53
2022/09/23 05:26:09;;;;;;;291.17;126.63;;;;;;;;;;5036686;28;20279;-52
2022/09/23 05:28:36;;;;;;;296.33;128.27;;;;;;;;;;5033459;28;20259;-53
2022/09/23 05:31:13;;;;;;;294.93;127.50;;;;;;;;;;5044362;28;20628;-53
2022/09/23 05:33:39;;;;;;;301.17;133.70;;;;;;;;;;5036372;28;20175;-53
2022/09/23 05:36:06;;;;;;;273.00;121.47;;;;;;;;;;5035154;28;20237;-53
2022/09/23 05:38:32;;;;;;;315.00;139.63;;;;;;;;;;5040237;28;20279;-53
2022/09/23 05:40:59;;;;;;;299.70;133.53;;;;;;;;;;5037954;28;20187;-53
2022/09/23 05:43:25;;;;;;;307.37;135.50;;;;;;;;;;5042691;28;20234;-53
2022/09/23 05:45:51;;;;;;;286.93;127.03;;;;;;;;;;5038140;28;20203;-52
2022/09/23 05:48:17;;;;;;;278.30;126.30;;;;;;;;;;5043189;28;20205;-53
2022/09/23 05:50:53;;;;;;;311.00;137.40;;;;;;;;;;5042559;28;20185;-53
2022/09/23 05:53:19;;;;;;;281.37;127.27;;;;;;;;;;5045368;28;20610;-53
2022/09/23 05:55:45;;;;;;;271.97;121.50;;;;;;;;;;5050996;28;20612;-52
2022/09/23 05:58:11;;;;;;;271.50;121.50;;;;;;;;;;5047920;28;20203;-53
2022/09/23 06:00:41;;;;;;;292.70;128.77;;;;;;;;;;5050315;28;20216;-52
2022/09/23 06:03:11;;;;;;;297.07;131.57;;;;;;;;;;5051501;28;20187;-52
2022/09/23 06:05:37;;;;;;;288.73;128.23;;;;;;;;;;5051898;28;20203;-52
2022/09/23 06:08:03;;;;;;;255.37;116.83;;;;;;;;;;5052373;28;20599;-52
2022/09/23 06:10:29;;;;;;;288.50;129.57;;;;;;;;;;5052023;28;20186;-52
2022/09/23 06:12:55;;;;;;;293.40;128.50;;;;;;;;;;5052569;28;20188;-53
2022/09/23 06:15:21;;;;;;;313.57;136.73;;;;;;;;;;5051913;28;20252;-53
2022/09/23 06:17:50;;;;;;;328.07;140.73;;;;;;;;;;5052716;28;20707;-53
2022/09/23 06:20:16;;;;;;;304.73;130.40;;;;;;;;;;5053492;28;20882;-53
2022/09/23 06:22:42;;;;;;;309.30;133.13;;;;;;;;;;5055383;28;20572;-53
2022/09/23 06:25:08;;;;;;;302.53;133.63;;;;;;;;;;5054282;28;20211;-53
2022/09/23 06:27:34;;;;;;;308.57;135.13;;;;;;;;;;5053789;28;20228;-53
2022/09/23 06:30:00;;;;;;;302.97;131.20;;;;;;;;;;5052968;28;20206;-53
2022/09/23 06:32:26;;;;;;;301.17;129.43;;;;;;;;;;5053925;28;20180;-53
2022/09/23 06:34:51;;;;;;;311.60;137.87;;;;;;;;;;5053916;28;20192;-53
2022/09/23 06:37:17;;;;;;;321.13;138.20;;;;;;;;;;5040203;28;20184;-52
2022/09/23 06:39:43;;;;;;;305.33;132.17;;;;;;;;;;5032141;28;20640;-52
2022/09/23 06:42:09;;;;;;;314.07;138.33;;;;;;;;;;5032030;28;20697;-52
2022/09/23 06:44:35;;;;;;;303.00;132.10;;;;;;;;;;5032029;28;20208;-52
2022/09/23 06:47:01;;;;;;;388.80;167.00;;;;;;;;;;5026866;28;20208;-49
2022/09/23 06:49:27;;;;;;;406.00;174.47;;;;;;;;;;5023917;28;20191;-49
2022/09/23 06:51:54;;;;;;;337.90;148.33;;;;;;;;;;5033047;28;20184;-51
2022/09/23 06:54:20;;;;;;;342.43;147.47;;;;;;;;;;5034433;28;20204;-50
2022/09/23 06:56:46;;;;;;;338.93;147.63;;;;;;;;;;5028385;28;20294;-50
2022/09/23 06:59:15;;;;;;;319.77;136.83;;;;;;;;;;5031627;28;20227;-52
2022/09/23 07:01:41;;;;;;;329.10;140.07;;;;;;;;;;5032122;28;20184;-52
2022/09/23 07:04:09;;;;;;;321.43;139.43;;;;;;;;;;5031717;28;20185;-52
2022/09/23 07:06:36;;;;;;;308.77;136.87;;;;;;;;;;5031929;28;20204;-52
2022/09/23 07:09:02;;;;;;;320.00;140.87;;;;;;;;;;5031570;28;20304;-52
2022/09/23 07:11:28;;;;;;;327.07;142.10;;;;;;;;;;5031900;28;20176;-52
2022/09/23 07:13:54;;;;;;;306.60;135.80;;;;;;;;;;5031326;28;20203;-52
2022/09/23 07:16:20;;;;;;;298.57;130.40;;;;;;;;;;5031263;28;20215;-53
2022/09/23 07:18:46;;;;;;;317.37;139.07;;;;;;;;;;5030729;28;20653;-53
2022/09/23 07:21:13;;;;;;;326.33;144.50;;;;;;;;;;5031544;28;20176;-53
2022/09/23 07:23:40;;;;;;;318.20;141.17;;;;;;;;;;5031398;28;20208;-52
2022/09/23 07:26:07;;;;;;;331.00;145.17;;;;;;;;;;5029107;28;20219;-52
2022/09/23 07:28:33;;;;;;;316.67;140.43;;;;;;;;;;5031190;28;20221;-52
2022/09/23 07:31:09;;;;;;;336.37;144.00;;;;;;;;;;5031267;28;20573;-52
2022/09/23 07:33:36;;;;;;;318.93;139.83;;;;;;;;;;5031068;28;20207;-52
2022/09/23 07:36:07;;;;;;;308.97;135.20;;;;;;;;;;5030797;28;20250;-52
2022/09/23 07:38:33;;;;;;;317.20;138.67;;;;;;;;;;5030949;28;20172;-53
2022/09/23 07:41:03;;;;;;;331.13;145.00;;;;;;;;;;5031124;28;20525;-52
2022/09/23 07:43:31;;;;;;;302.60;134.53;;;;;;;;;;5031145;28;20181;-52
2022/09/23 07:45:57;;;;;;;333.97;144.70;;;;;;;;;;5030255;28;20213;-53
2022/09/23 07:48:23;;;;;;;339.70;148.07;;;;;;;;;;5030431;28;20329;-52
2022/09/23 07:50:49;;;;;;;330.90;142.80;;;;;;;;;;5030651;28;20169;-52
2022/09/23 07:53:15;;;;;;;347.87;150.20;;;;;;;;;;5030505;28;20246;-52
2022/09/23 07:55:41;;;;;;;323.57;139.43;;;;;;;;;;5030541;28;20196;-55
2022/09/23 07:58:07;;;;;;;324.23;142.07;;;;;;;;;;5030834;28;20176;-53
2022/09/23 08:00:35;;;;;;;317.80;137.40;;;;;;;;;;5029814;28;20672;-53
2022/09/23 08:03:01;;;;;;;336.63;145.90;;;;;;;;;;5030811;28;20244;-53
2022/09/23 08:05:27;;;;;;;340.00;149.20;;;;;;;;;;5029432;28;20199;-53
2022/09/23 08:07:53;;;;;;;323.70;141.30;;;;;;;;;;5030427;28;20707;-54
2022/09/23 08:10:19;;;;;;;317.03;139.77;;;;;;;;;;5029697;28;20259;-53
2022/09/23 08:12:45;;;;;;;330.73;144.70;;;;;;;;;;5030392;28;20235;-52
2022/09/23 08:15:11;;;;;;;328.60;144.63;;;;;;;;;;5029872;28;20197;-52
2022/09/23 08:17:37;;;;;;;326.63;143.83;;;;;;;;;;5030106;28;20510;-52
2022/09/23 08:20:03;;;;;;;320.67;142.13;;;;;;;;;;5028752;28;20259;-53
2022/09/23 08:22:29;;;;;;;325.23;145.47;;;;;;;;;;5029751;28;20172;-53
2022/09/23 08:24:55;;;;;;;330.67;147.33;;;;;;;;;;5029663;28;20238;-52
2022/09/23 08:27:21;;;;;;;341.43;151.90;;;;;;;;;;5029801;28;20664;-52
2022/09/23 08:29:47;;;;;;;321.80;142.13;;;;;;;;;;5029864;28;20532;-52
2022/09/23 08:32:13;;;;;;;332.50;150.57;;;;;;;;;;5034636;28;20252;-52
2022/09/23 08:34:39;;;;;;;300.57;139.57;;;;;;;;;;5037543;28;20219;-53
2022/09/23 08:37:09;;;;;;;332.67;149.27;;;;;;;;;;5037782;28;20177;-53
2022/09/23 08:39:35;;;;;;;323.20;148.93;;;;;;;;;;5037857;28;20161;-52
2022/09/23 08:42:13;;;;;;;317.87;145.07;;;;;;;;;;5038858;28;20176;-52
2022/09/23 08:44:50;;;;;;;306.30;138.33;;;;;;;;;;5037564;28;20220;-53
2022/09/23 08:47:21;;;;;;;330.37;151.50;;;;;;;;;;5037233;28;20209;-53
2022/09/23 08:49:53;;;;;;;313.27;147.23;;;;;;;;;;5036560;28;20296;-53
2022/09/23 08:52:23;;;;;;;319.20;148.20;;;;;;;;;;5037050;28;20172;-53
2022/09/23 08:54:49;;;;;;;316.50;149.30;;;;;;;;;;5037639;28;20212;-53
2022/09/23 08:57:26;;;;;;;318.53;147.50;;;;;;;;;;5037049;28;20196;-53
2022/09/23 08:59:53;;;;;;;328.57;148.60;;;;;;;;;;5036678;28;20560;-52
2022/09/23 09:02:21;;;;;;;323.03;146.03;;;;;;;;;;5036591;28;20177;-53
2022/09/23 09:04:49;;;;;;;315.80;144.63;;;;;;;;;;5036907;28;20223;-53
2022/09/23 09:07:17;;;;;;;323.23;147.83;;;;;;;;;;5036925;28;20661;-53
2022/09/23 09:10:09;;;;;;;318.43;147.17;;;;;;;;;;5036695;28;20190;-52
2022/09/23 09:12:45;;;;;;;313.10;143.27;;;;;;;;;;5035644;28;20381;-52
2022/09/23 09:15:14;;;;;;;312.20;147.53;;;;;;;;;;5036185;28;20620;-53
2022/09/23 09:17:48;;;;;;;325.80;153.17;;;;;;;;;;5035196;28;20175;-53
2022/09/23 09:20:24;;;;;;;320.03;147.33;;;;;;;;;;5036357;28;20176;-53
2022/09/23 09:22:59;;;;;;;323.00;147.30;;;;;;;;;;5036573;28;20176;-53
2022/09/23 09:25:25;;;;;;;334.23;153.97;;;;;;;;;;5050840;28;20607;-53
2022/09/23 09:27:51;;;;;;;323.27;147.77;;;;;;;;;;5056411;28;20243;-53
2022/09/23 09:30:18;;;;;;;330.43;158.40;;;;;;;;;;5056728;28;20651;-53
2022/09/23 09:32:55;;;;;;;337.33;156.80;;;;;;;;;;5056201;28;20203;-53
2022/09/23 09:35:37;;;;;;;356.33;165.87;;;;;;;;;;5055204;28;20259;-53
2022/09/23 09:38:04;;;;;;;323.60;149.50;;;;;;;;;;5056713;28;20168;-52
2022/09/23 09:40:30;;;;;;;332.43;155.07;;;;;;;;;;5056379;28;20171;-53
2022/09/23 09:42:56;;;;;;;341.33;159.67;;;;;;;;;;5055661;28;20183;-53
2022/09/23 09:45:43;;;;;;;354.73;169.30;;;;;;;;;;5055532;28;20199;-53
2022/09/23 09:48:09;;;;;;;336.03;157.17;;;;;;;;;;5055930;28;20160;-53
2022/09/23 09:50:43;;;;;;;332.73;154.60;;;;;;;;;;5054887;28;20544;-53
2022/09/23 09:53:17;;;;;;;349.93;164.23;;;;;;;;;;5055545;28;20180;-53
2022/09/23 09:55:44;;;;;;;329.67;155.63;;;;;;;;;;5055216;28;20203;-52
2022/09/23 09:58:12;;;;;;;340.97;161.37;;;;;;;;;;5055198;28;20172;-53
2022/09/23 10:00:42;;;;;;;333.37;159.07;;;;;;;;;;5055388;28;20247;-53
2022/09/23 10:03:14;;;;;;;342.07;163.83;;;;;;;;;;5055029;28;20253;-52
2022/09/23 10:05:43;;;;;;;325.00;155.33;;;;;;;;;;5055598;28;20206;-52
2022/09/23 10:08:31;;;;;;;335.53;161.97;;;;;;;;;;5054929;28;20212;-53
2022/09/23 10:11:04;;;;;;;332.90;158.03;;;;;;;;;;5053660;28;20179;-53
2022/09/23 10:13:30;;;;;;;332.13;158.30;;;;;;;;;;5054605;28;20203;-52
2022/09/23 10:15:58;;;;;;;335.27;161.00;;;;;;;;;;5054112;28;20268;-53
2022/09/23 10:18:32;;;;;;;325.10;154.20;;;;;;;;;;5054954;28;20195;-53
2022/09/23 10:21:09;;;;;;;338.00;161.90;;;;;;;;;;5052015;28;20404;-53
2022/09/23 10:23:38;;;;;;;339.10;163.70;;;;;;;;;;5052028;28;20608;-53
2022/09/23 10:26:07;;;;;;;330.30;155.80;;;;;;;;;;5052334;28;20584;-53
2022/09/23 10:28:33;;;;;;;340.53;167.07;;;;;;;;;;5051990;28;20302;-53
2022/09/23 10:31:11;;;;;;;364.20;177.83;;;;;;;;;;5052120;28;20176;-53
2022/09/23 10:33:41;;;;;;;341.60;167.33;;;;;;;;;;5053541;28;20167;-53
2022/09/23 10:36:10;;;;;;;343.80;171.13;;;;;;;;;;5054952;28;20195;-53
2022/09/23 10:38:36;;;;;;;334.87;166.50;;;;;;;;;;5058601;28;20211;-53
2022/09/23 10:47:18;;;;;;;432.87;215.53;;;;;;;;;;5008605;28;20239;-53
2022/09/23 10:49:51;;;;;;;332.53;164.93;;;;;;;;;;5058097;28;20234;-54
2022/09/23 10:52:31;;;;;;;320.57;160.40;;;;;;;;;;5060925;28;20164;-54
2022/09/23 10:55:02;;;;;;;340.03;168.67;;;;;;;;;;5060617;28;20262;-52
2022/09/23 10:57:39;;;;;;;347.67;169.67;;;;;;;;;;5059276;28;20187;-52
2022/09/23 11:00:16;;;;;;;337.93;167.70;;;;;;;;;;5060947;28;20158;-52
2022/09/23 11:02:52;;;;;;;335.73;166.07;;;;;;;;;;5060571;28;20163;-52
2022/09/23 11:05:37;;;;;;;357.10;183.03;;;;;;;;;;5059799;28;20656;-53
2022/09/23 11:08:10;;;;;;;344.57;177.77;;;;;;;;;;5039175;28;20318;-53
2022/09/23 11:10:36;;;;;;;353.00;179.10;;;;;;;;;;5039519;28;20200;-54
2022/09/23 11:13:10;;;;;;;326.90;171.03;;;;;;;;;;5049912;28;20718;-53
2022/09/23 11:16:12;;;;;;;351.57;181.33;;;;;;;;;;5059987;28;20218;-54
2022/09/23 11:18:53;;;;;;;344.13;178.07;;;;;;;;;;5036877;28;20179;-53
2022/09/23 11:21:35;;;;;;;328.23;170.73;;;;;;;;;;5057395;28;20261;-52
2022/09/23 11:24:04;;;;;;;336.93;177.53;;;;;;;;;;5059482;28;20159;-53
2022/09/23 11:26:33;;;;;;;351.30;182.47;;;;;;;;;;5059369;28;20213;-53
2022/09/23 11:29:21;;;;;;;348.13;182.80;;;;;;;;;;5059291;28;20248;-53
2022/09/23 11:32:05;;;;;;;349.47;181.60;;;;;;;;;;5059454;28;20159;-53
2022/09/23 11:34:40;;;;;;;358.03;186.90;;;;;;;;;;5059440;28;20196;-52
2022/09/23 11:37:13;;;;;;;350.10;182.10;;;;;;;;;;5059104;28;20179;-53
2022/09/23 11:39:47;;;;;;;347.90;179.90;;;;;;;;;;5059134;28;20652;-53
2022/09/23 11:42:16;;;;;;;339.97;176.20;;;;;;;;;;5058839;28;20186;-54
2022/09/23 11:44:47;;;;;;;357.43;182.77;;;;;;;;;;5058320;28;20192;-53
2022/09/23 11:47:21;;;;;;;344.00;170.37;;;;;;;;;;5059168;28;20191;-53
2022/09/23 11:49:52;;;;;;;338.23;180.93;;;;;;;;;;5058735;28;20160;-53
2022/09/23 11:52:40;;;;;;;346.10;183.27;;;;;;;;;;5058546;28;20700;-53
2022/09/23 11:55:11;;;;;;;337.67;179.53;;;;;;;;;;5058599;28;20195;-53
2022/09/23 11:57:48;;;;;;;352.30;189.00;;;;;;;;;;5058087;28;20164;-53
2022/09/23 12:00:18;;;;;;;354.80;191.97;;;;;;;;;;5055116;28;20176;-53
2022/09/23 12:02:52;;;;;;;343.13;183.50;;;;;;;;;;5057198;28;20183;-53
2022/09/23 12:05:21;;;;;;;351.90;189.27;;;;;;;;;;5056659;28;20290;-53
2022/09/23 12:07:55;;;;;;;359.97;194.73;;;;;;;;;;5054438;28;20183;-52
2022/09/23 12:10:23;;;;;;;338.97;182.67;;;;;;;;;;5051397;28;20667;-53
2022/09/23 12:12:51;;;;;;;341.63;182.00;;;;;;;;;;5051588;28;20234;-51
2022/09/23 12:15:36;;;;;;;346.50;182.13;;;;;;;;;;5051021;28;20604;-53
2022/09/23 12:18:21;;;;;;;341.20;171.73;;;;;;;;;;5050483;28;20229;-53
2022/09/23 12:20:50;;;;;;;322.83;170.67;;;;;;;;;;5051423;28;20207;-53
2022/09/23 12:23:40;;;;;;;327.23;173.00;;;;;;;;;;5050685;28;20206;-53
2022/09/23 12:26:08;;;;;;;357.13;188.97;;;;;;;;;;5052218;28;20302;-53
2022/09/23 12:28:36;;;;;;;352.73;187.13;;;;;;;;;;5057093;28;20231;-54
2022/09/23 12:31:05;;;;;;;339.57;177.90;;;;;;;;;;5057529;28;20195;-53
2022/09/23 12:33:32;;;;;;;346.00;184.77;;;;;;;;;;5056540;28;20628;-53
2022/09/23 12:36:03;;;;;;;349.30;186.53;;;;;;;;;;5057638;28;20196;-53
2022/09/23 12:38:50;;;;;;;338.30;180.20;;;;;;;;;;5056956;28;20570;-54
2022/09/23 12:41:35;;;;;;;327.87;180.30;;;;;;;;;;5056956;28;20844;-54
2022/09/23 12:44:13;;;;;;;348.63;191.93;;;;;;;;;;5056777;28;20162;-55
2022/09/23 12:46:40;;;;;;;351.93;193.63;;;;;;;;;;5056776;28;20237;-54
2022/09/23 12:49:22;;;;;;;329.73;184.10;;;;;;;;;;5056641;28;20662;-54
2022/09/23 12:52:12;;;;;;;316.47;179.63;;;;;;;;;;5057167;28;20167;-54
2022/09/23 12:54:39;;;;;;;346.77;193.47;;;;;;;;;;5056396;28;20199;-54
2022/09/23 12:57:12;;;;;;;350.33;193.90;;;;;;;;;;5056189;28;20854;-54
2022/09/23 12:59:56;;;;;;;347.83;194.93;;;;;;;;;;5057059;28;20524;-54
2022/09/23 13:02:25;;;;;;;347.47;196.13;;;;;;;;;;5056918;28;20182;-55
2022/09/23 13:07:58;;;;;;;332.83;179.03;;;;;;;;;;5057140;28;20167;-54
2022/09/23 13:10:29;;;;;;;339.73;185.77;;;;;;;;;;5057124;28;20233;-54
2022/09/23 13:12:56;;;;;;;341.07;188.33;;;;;;;;;;5056944;28;20596;-53
2022/09/23 13:15:26;;;;;;;351.07;194.90;;;;;;;;;;5057172;28;20669;-54
2022/09/23 13:17:52;;;;;;;342.33;186.60;;;;;;;;;;5057429;28;20688;-54
2022/09/23 13:20:21;;;;;;;349.67;202.07;;;;;;;;;;5056656;28;20194;-53
2022/09/23 13:22:50;;;;;;;346.83;199.37;;;;;;;;;;5055549;28;20206;-54
2022/09/23 13:25:21;;;;;;;349.80;205.52;;;;;;;;;;5055070;28;20238;-54
2022/09/23 13:27:50;;;;;;;335.77;202.43;;;;;;;;;;5056285;28;20584;-54
2022/09/23 13:30:20;;;;;;;355.60;215.57;;;;;;;;;;5055354;28;20176;-55
2022/09/23 13:33:04;;;;;;;351.00;216.85;;;;;;;;;;5055871;28;20221;-55
2022/09/23 13:35:33;;;;;;;368.55;225.48;;;;;;;;;;5054828;28;20211;-54
2022/09/23 13:38:09;;;;;;;368.15;232.10;;;;;;;;;;5054984;28;20175;-54
2022/09/23 13:40:35;;;;;;;355.83;229.32;;;;;;;;;;5055598;28;20163;-54
2022/09/23 13:43:03;;;;;;;342.42;228.93;;;;;;;;;;5055289;28;20172;-54
2022/09/23 13:45:30;;;;;;;371.48;247.18;;;;;;;;;;5051926;28;20195;-54
2022/09/23 13:48:05;;;;;;;371.45;251.20;;;;;;;;;;5049678;28;20169;-55
2022/09/23 13:50:31;;;;;;;339.60;242.10;;;;;;;;;;5049821;28;20166;-54
2022/09/23 13:52:57;;;;;;;;;;;;;;;;;;5049611;28;20158;-55
2022/09/23 13:55:23;;;;;;;;;;;;;;;;;;5048912;28;19904;-52
2022/09/23 13:57:48;;;;;;;;;;;;;;;;;;5050948;28;20008;-53
2022/09/23 14:00:14;;;;;;;364.80;269.35;;;;;;;;;;5049986;28;20341;-53
2022/09/23 14:02:45;;;;;;;364.52;276.92;;;;;;;;;;5050057;28;20176;-52
2022/09/23 14:05:12;;;;;;;372.75;279.30;;;;;;;;;;5048864;28;20207;-52
2022/09/23 14:07:38;;;;;;;365.20;262.60;;;;;;;;;;5034200;28;20205;-53
2022/09/23 14:10:05;;;;;;;394.13;287.83;;;;;;;;;;5021261;28;20184;-54
2022/09/23 14:12:31;;;;;;;386.90;291.60;;;;;;;;;;5026636;28;20237;-53
2022/09/23 14:14:57;;;;;;;411.98;295.17;;;;;;;;;;5032341;28;20222;-54
2022/09/23 14:17:23;;;;;;;391.70;290.63;;;;;;;;;;5028948;28;20184;-54
2022/09/23 14:19:50;;;;;;;395.45;304.55;;;;;;;;;;5025257;28;20290;-53
2022/09/23 14:22:26;;;;;;;389.05;292.05;;;;;;;;;;5031639;28;20190;-53